sensor_id;sensor_type;location;lat;lon;timestamp;pressure;altitude;pressure_sealevel;temperature;humidity
28167;BME280;15455;53.376;-6.262;2023-02-13T00:02:00;102888.13;;;5.38;100.00
28167;BME280;15455;53.376;-6.262;2023-02-13T00:04:46;102885.91;;;5.45;100.00
28167;BME280;15455;53.376;-6.262;2023-02-13T00:07:31;102878.22;;;5.46;100.00
28167;BME280;15455;53.376;-6.262;2023-02-13T00:10:17;102879.81;;;5.44;100.00
28167;BME280;15455;53.376;-6.262;2023-02-13T00:13:02;102880.63;;;5.43;100.00
28167;BME280;15455;53.376;-6.262;2023-02-13T00:15:57;102881.44;;;5.42;100.00
28167;BME280;15455;53.376;-6.262;2023-02-13T00:18:42;102878.13;;;5.45;100.00
28167;BME280;15455;53.376;-6.262;2023-02-13T00:21:28;102877.84;;;5.40;100.00
28167;BME280;15455;53.376;-6.262;2023-02-13T00:24:13;102875.19;;;5.38;100.00
28167;BME280;15455;53.376;-6.262;2023-02-13T00:26:59;102874.31;;;5.38;100.00
28167;BME280;15455;53.376;-6.262;2023-02-13T00:29:45;102875.19;;;5.38;100.00
28167;BME280;15455;53.376;-6.262;2023-02-13T00:32:31;102870.09;;;5.40;100.00
28167;BME280;15455;53.376;-6.262;2023-02-13T00:35:16;102874.31;;;5.38;100.00
28167;BME280;15455;53.376;-6.262;2023-02-13T00:38:01;102873.06;;;5.31;100.00
28167;BME280;15455;53.376;-6.262;2023-02-13T00:40:47;102871.06;;;5.26;100.00
28167;BME280;15455;53.376;-6.262;2023-02-13T00:43:32;102866.63;;;5.23;100.00
28167;BME280;15455;53.376;-6.262;2023-02-13T00:46:18;102876.91;;;5.21;100.00
28167;BME280;15455;53.376;-6.262;2023-02-13T00:49:04;102877.38;;;5.14;100.00
28167;BME280;15455;53.376;-6.262;2023-02-13T00:51:51;102868.53;;;5.11;100.00
28167;BME280;15455;53.376;-6.262;2023-02-13T00:54:39;102859.88;;;5.10;100.00
28167;BME280;15455;53.376;-6.262;2023-02-13T00:57:24;102868.69;;;5.14;100.00
28167;BME280;15455;53.376;-6.262;2023-02-13T01:00:10;102885.84;;;5.12;100.00
28167;BME280;15455;53.376;-6.262;2023-02-13T01:02:58;102882.03;;;5.05;100.00
28167;BME280;15455;53.376;-6.262;2023-02-13T01:05:44;102881.78;;;5.00;100.00
28167;BME280;15455;53.376;-6.262;2023-02-13T01:08:30;102878.31;;;5.00;100.00
28167;BME280;15455;53.376;-6.262;2023-02-13T01:11:16;102883.50;;;5.00;100.00
28167;BME280;15455;53.376;-6.262;2023-02-13T01:14:03;102883.56;;;5.01;100.00
28167;BME280;15455;53.376;-6.262;2023-02-13T01:16:48;102879.81;;;4.96;100.00
28167;BME280;15455;53.376;-6.262;2023-02-13T01:19:34;102881.09;;;4.88;100.00
28167;BME280;15455;53.376;-6.262;2023-02-13T01:22:19;102889.53;;;4.84;100.00
28167;BME280;15455;53.376;-6.262;2023-02-13T01:25:06;102883.19;;;4.79;100.00
28167;BME280;15455;53.376;-6.262;2023-02-13T01:27:52;102882.09;;;4.75;100.00
28167;BME280;15455;53.376;-6.262;2023-02-13T01:30:38;102881.69;;;4.67;100.00
28167;BME280;15455;53.376;-6.262;2023-02-13T01:33:25;102868.16;;;4.57;100.00
28167;BME280;15455;53.376;-6.262;2023-02-13T01:36:11;102864.41;;;4.51;100.00
28167;BME280;15455;53.376;-6.262;2023-02-13T01:38:58;102863.53;;;4.51;100.00
28167;BME280;15455;53.376;-6.262;2023-02-13T01:41:44;102872.88;;;4.49;100.00
28167;BME280;15455;53.376;-6.262;2023-02-13T01:44:50;102868.16;;;4.42;100.00
28167;BME280;15455;53.376;-6.262;2023-02-13T01:47:45;102874.78;;;4.37;100.00
28167;BME280;15455;53.376;-6.262;2023-02-13T01:51:09;102862.06;;;4.25;100.00
28167;BME280;15455;53.376;-6.262;2023-02-13T01:53:50;102862.66;;;4.21;100.00
28167;BME280;15455;53.376;-6.262;2023-02-13T01:56:51;102867.75;;;4.19;100.00
28167;BME280;15455;53.376;-6.262;2023-02-13T01:59:47;102865.00;;;4.16;100.00
28167;BME280;15455;53.376;-6.262;2023-02-13T02:02:38;102860.63;;;4.15;100.00
28167;BME280;15455;53.376;-6.262;2023-02-13T02:05:26;102858.91;;;4.15;100.00
28167;BME280;15455;53.376;-6.262;2023-02-13T02:08:13;102852.69;;;4.12;100.00
28167;BME280;15455;53.376;-6.262;2023-02-13T02:11:05;102849.47;;;4.01;100.00
28167;BME280;15455;53.376;-6.262;2023-02-13T02:13:53;102848.03;;;3.91;100.00
28167;BME280;15455;53.376;-6.262;2023-02-13T02:16:48;102853.53;;;3.82;100.00
28167;BME280;15455;53.376;-6.262;2023-02-13T02:19:39;102843.22;;;3.82;100.00
28167;BME280;15455;53.376;-6.262;2023-02-13T02:22:41;102854.72;;;4.03;100.00
28167;BME280;15455;53.376;-6.262;2023-02-13T02:32:25;102839.94;;;4.00;100.00
28167;BME280;15455;53.376;-6.262;2023-02-13T02:41:45;102827.63;;;3.81;100.00
28167;BME280;15455;53.376;-6.262;2023-02-13T02:52:03;102818.13;;;3.95;100.00
28167;BME280;15455;53.376;-6.262;2023-02-13T02:54:53;102824.53;;;4.02;100.00
28167;BME280;15455;53.376;-6.262;2023-02-13T02:58:17;102825.16;;;4.12;100.00
28167;BME280;15455;53.376;-6.262;2023-02-13T03:01:25;102817.47;;;4.14;100.00
28167;BME280;15455;53.376;-6.262;2023-02-13T03:04:42;102817.03;;;4.21;100.00
28167;BME280;15455;53.376;-6.262;2023-02-13T03:07:48;102806.53;;;4.18;100.00
28167;BME280;15455;53.376;-6.262;2023-02-13T03:10:35;102805.44;;;4.14;100.00
28167;BME280;15455;53.376;-6.262;2023-02-13T03:13:44;102810.88;;;4.04;100.00
28167;BME280;15455;53.376;-6.262;2023-02-13T03:16:32;102817.13;;;4.08;100.00
28167;BME280;15455;53.376;-6.262;2023-02-13T03:19:46;102810.97;;;4.06;100.00
28167;BME280;15455;53.376;-6.262;2023-02-13T03:23:05;102807.59;;;4.07;100.00
28167;BME280;15455;53.376;-6.262;2023-02-13T03:25:59;102813.22;;;3.99;100.00
28167;BME280;15455;53.376;-6.262;2023-02-13T03:28:58;102800.75;;;3.92;100.00
28167;BME280;15455;53.376;-6.262;2023-02-13T03:32:25;102803.06;;;3.88;100.00
28167;BME280;15455;53.376;-6.262;2023-02-13T03:35:46;102810.91;;;3.89;100.00
28167;BME280;15455;53.376;-6.262;2023-02-13T03:39:21;102805.72;;;3.89;100.00
28167;BME280;15455;53.376;-6.262;2023-02-13T03:42:32;102812.50;;;3.87;100.00
28167;BME280;15455;53.376;-6.262;2023-02-13T03:45:35;102804.66;;;3.86;100.00
28167;BME280;15455;53.376;-6.262;2023-02-13T03:48:39;102808.66;;;3.95;100.00
28167;BME280;15455;53.376;-6.262;2023-02-13T03:57:48;102807.94;;;4.13;100.00
28167;BME280;15455;53.376;-6.262;2023-02-13T04:00:57;102804.53;;;4.29;100.00
28167;BME280;15455;53.376;-6.262;2023-02-13T04:03:57;102804.06;;;4.36;100.00
28167;BME280;15455;53.376;-6.262;2023-02-13T04:06:55;102796.53;;;4.39;100.00
28167;BME280;15455;53.376;-6.262;2023-02-13T04:09:42;102798.28;;;4.40;100.00
28167;BME280;15455;53.376;-6.262;2023-02-13T04:12:34;102800.06;;;4.41;100.00
28167;BME280;15455;53.376;-6.262;2023-02-13T04:18:28;102797.16;;;4.35;100.00
28167;BME280;15455;53.376;-6.262;2023-02-13T04:21:15;102795.44;;;4.35;100.00
28167;BME280;15455;53.376;-6.262;2023-02-13T04:24:00;102797.72;;;4.46;100.00
28167;BME280;15455;53.376;-6.262;2023-02-13T04:26:46;102801.22;;;4.46;100.00
28167;BME280;15455;53.376;-6.262;2023-02-13T04:29:31;102798.53;;;4.45;100.00
28167;BME280;15455;53.376;-6.262;2023-02-13T04:32:17;102791.50;;;4.42;100.00
28167;BME280;15455;53.376;-6.262;2023-02-13T04:35:03;102787.84;;;4.39;100.00
28167;BME280;15455;53.376;-6.262;2023-02-13T04:37:48;102785.00;;;4.34;100.00
28167;BME280;15455;53.376;-6.262;2023-02-13T04:40:34;102786.34;;;4.27;100.00
28167;BME280;15455;53.376;-6.262;2023-02-13T04:43:20;102786.44;;;4.29;100.00
28167;BME280;15455;53.376;-6.262;2023-02-13T04:46:06;102782.88;;;4.27;100.00
28167;BME280;15455;53.376;-6.262;2023-02-13T04:48:51;102779.97;;;4.21;100.00
28167;BME280;15455;53.376;-6.262;2023-02-13T04:51:37;102776.56;;;4.22;100.00
28167;BME280;15455;53.376;-6.262;2023-02-13T04:54:22;102788.31;;;4.31;100.00
28167;BME280;15455;53.376;-6.262;2023-02-13T04:57:07;102787.13;;;4.41;100.00
28167;BME280;15455;53.376;-6.262;2023-02-13T04:59:53;102782.38;;;4.49;100.00
28167;BME280;15455;53.376;-6.262;2023-02-13T05:02:38;102786.84;;;4.51;100.00
28167;BME280;15455;53.376;-6.262;2023-02-13T05:05:24;102795.13;;;4.61;100.00
28167;BME280;15455;53.376;-6.262;2023-02-13T05:08:09;102796.16;;;4.64;100.00
28167;BME280;15455;53.376;-6.262;2023-02-13T05:10:55;102798.44;;;4.58;100.00
28167;BME280;15455;53.376;-6.262;2023-02-13T05:13:40;102793.97;;;4.56;100.00
28167;BME280;15455;53.376;-6.262;2023-02-13T05:16:26;102798.34;;;4.57;100.00
28167;BME280;15455;53.376;-6.262;2023-02-13T05:19:11;102789.44;;;4.51;100.00
28167;BME280;15455;53.376;-6.262;2023-02-13T05:21:57;102790.22;;;4.50;100.00
28167;BME280;15455;53.376;-6.262;2023-02-13T05:25:01;102790.59;;;4.57;100.00
28167;BME280;15455;53.376;-6.262;2023-02-13T05:27:47;102791.13;;;4.51;100.00
28167;BME280;15455;53.376;-6.262;2023-02-13T05:30:32;102782.13;;;4.44;100.00
28167;BME280;15455;53.376;-6.262;2023-02-13T05:33:17;102783.41;;;4.36;100.00
28167;BME280;15455;53.376;-6.262;2023-02-13T05:36:03;102791.59;;;4.44;100.00
28167;BME280;15455;53.376;-6.262;2023-02-13T05:38:48;102782.31;;;4.47;100.00
28167;BME280;15455;53.376;-6.262;2023-02-13T05:41:34;102772.94;;;4.49;100.00
28167;BME280;15455;53.376;-6.262;2023-02-13T05:44:19;102768.66;;;4.50;100.00
28167;BME280;15455;53.376;-6.262;2023-02-13T05:47:04;102761.53;;;4.46;100.00
28167;BME280;15455;53.376;-6.262;2023-02-13T05:49:50;102763.88;;;4.41;100.00
28167;BME280;15455;53.376;-6.262;2023-02-13T05:52:36;102750.16;;;4.42;100.00
28167;BME280;15455;53.376;-6.262;2023-02-13T05:55:21;102747.66;;;4.44;100.00
28167;BME280;15455;53.376;-6.262;2023-02-13T05:58:07;102751.28;;;4.47;100.00
28167;BME280;15455;53.376;-6.262;2023-02-13T06:00:56;102741.66;;;4.45;100.00
28167;BME280;15455;53.376;-6.262;2023-02-13T06:03:45;102753.53;;;4.41;100.00
28167;BME280;15455;53.376;-6.262;2023-02-13T06:06:30;102747.41;;;4.39;100.00
28167;BME280;15455;53.376;-6.262;2023-02-13T06:09:16;102749.63;;;4.33;100.00
28167;BME280;15455;53.376;-6.262;2023-02-13T06:12:01;102732.91;;;4.26;100.00
28167;BME280;15455;53.376;-6.262;2023-02-13T06:14:47;102741.44;;;4.25;100.00
28167;BME280;15455;53.376;-6.262;2023-02-13T06:17:32;102743.03;;;4.23;100.00
28167;BME280;15455;53.376;-6.262;2023-02-13T06:20:17;102729.66;;;4.30;100.00
28167;BME280;15455;53.376;-6.262;2023-02-13T06:23:03;102737.78;;;4.37;100.00
28167;BME280;15455;53.376;-6.262;2023-02-13T06:25:49;102731.44;;;4.31;100.00
28167;BME280;15455;53.376;-6.262;2023-02-13T06:28:35;102729.41;;;4.26;100.00
28167;BME280;15455;53.376;-6.262;2023-02-13T06:31:20;102736.28;;;4.25;100.00
28167;BME280;15455;53.376;-6.262;2023-02-13T06:34:07;102746.94;;;4.31;100.00
28167;BME280;15455;53.376;-6.262;2023-02-13T06:36:52;102739.03;;;4.28;100.00
28167;BME280;15455;53.376;-6.262;2023-02-13T06:39:38;102736.53;;;4.30;100.00
28167;BME280;15455;53.376;-6.262;2023-02-13T06:42:23;102730.03;;;4.22;100.00
28167;BME280;15455;53.376;-6.262;2023-02-13T06:45:11;102718.69;;;4.03;100.00
28167;BME280;15455;53.376;-6.262;2023-02-13T06:47:57;102718.16;;;3.94;100.00
28167;BME280;15455;53.376;-6.262;2023-02-13T06:50:43;102723.00;;;3.88;100.00
28167;BME280;15455;53.376;-6.262;2023-02-13T06:53:28;102726.09;;;3.82;100.00
28167;BME280;15455;53.376;-6.262;2023-02-13T06:56:14;102727.59;;;3.78;100.00
28167;BME280;15455;53.376;-6.262;2023-02-13T06:58:59;102736.88;;;3.75;100.00
28167;BME280;15455;53.376;-6.262;2023-02-13T07:01:45;102726.72;;;3.78;100.00
28167;BME280;15455;53.376;-6.262;2023-02-13T07:04:31;102739.13;;;3.69;100.00
28167;BME280;15455;53.376;-6.262;2023-02-13T07:07:16;102735.94;;;3.73;100.00
28167;BME280;15455;53.376;-6.262;2023-02-13T07:10:02;102731.91;;;3.78;100.00
28167;BME280;15455;53.376;-6.262;2023-02-13T07:12:48;102731.88;;;3.93;100.00
28167;BME280;15455;53.376;-6.262;2023-02-13T07:15:49;102739.75;;;3.94;100.00
28167;BME280;15455;53.376;-6.262;2023-02-13T07:18:34;102744.78;;;3.93;100.00
28167;BME280;15455;53.376;-6.262;2023-02-13T07:21:22;102733.03;;;3.98;100.00
28167;BME280;15455;53.376;-6.262;2023-02-13T07:24:09;102738.72;;;4.07;100.00
28167;BME280;15455;53.376;-6.262;2023-02-13T07:26:54;102738.16;;;4.13;100.00
28167;BME280;15455;53.376;-6.262;2023-02-13T07:29:39;102739.88;;;4.12;100.00
28167;BME280;15455;53.376;-6.262;2023-02-13T07:32:25;102729.03;;;4.03;100.00
28167;BME280;15455;53.376;-6.262;2023-02-13T07:35:11;102727.69;;;3.95;100.00
28167;BME280;15455;53.376;-6.262;2023-02-13T07:37:56;102732.16;;;3.82;100.00
28167;BME280;15455;53.376;-6.262;2023-02-13T07:40:42;102724.22;;;3.79;100.00
28167;BME280;15455;53.376;-6.262;2023-02-13T07:43:28;102743.66;;;3.88;100.00
28167;BME280;15455;53.376;-6.262;2023-02-13T07:46:13;102740.06;;;3.86;100.00
28167;BME280;15455;53.376;-6.262;2023-02-13T07:48:59;102739.72;;;3.79;100.00
28167;BME280;15455;53.376;-6.262;2023-02-13T07:51:45;102739.22;;;3.70;100.00
28167;BME280;15455;53.376;-6.262;2023-02-13T07:54:31;102737.88;;;3.62;100.00
28167;BME280;15455;53.376;-6.262;2023-02-13T07:57:17;102738.66;;;3.61;100.00
28167;BME280;15455;53.376;-6.262;2023-02-13T08:00:02;102740.81;;;3.53;100.00
28167;BME280;15455;53.376;-6.262;2023-02-13T08:02:59;102732.09;;;3.51;100.00
28167;BME280;15455;53.376;-6.262;2023-02-13T08:05:46;102733.16;;;3.40;100.00
28167;BME280;15455;53.376;-6.262;2023-02-13T08:08:34;102736.16;;;3.33;100.00
28167;BME280;15455;53.376;-6.262;2023-02-13T08:11:27;102739.78;;;3.21;100.00
28167;BME280;15455;53.376;-6.262;2023-02-13T08:14:34;102745.66;;;3.19;100.00
28167;BME280;15455;53.376;-6.262;2023-02-13T08:17:19;102751.50;;;3.16;100.00
28167;BME280;15455;53.376;-6.262;2023-02-13T08:20:07;102759.91;;;3.12;100.00
28167;BME280;15455;53.376;-6.262;2023-02-13T08:22:53;102750.19;;;3.08;100.00
28167;BME280;15455;53.376;-6.262;2023-02-13T08:25:38;102757.81;;;3.06;100.00
28167;BME280;15455;53.376;-6.262;2023-02-13T08:28:24;102764.94;;;3.10;100.00
28167;BME280;15455;53.376;-6.262;2023-02-13T08:31:11;102766.09;;;3.01;100.00
28167;BME280;15455;53.376;-6.262;2023-02-13T08:33:57;102765.47;;;3.05;100.00
28167;BME280;15455;53.376;-6.262;2023-02-13T08:36:42;102768.09;;;3.20;100.00
28167;BME280;15455;53.376;-6.262;2023-02-13T08:39:28;102767.66;;;3.27;100.00
28167;BME280;15455;53.376;-6.262;2023-02-13T08:42:14;102764.47;;;3.31;100.00
28167;BME280;15455;53.376;-6.262;2023-02-13T08:45:00;102756.72;;;3.31;100.00
28167;BME280;15455;53.376;-6.262;2023-02-13T08:47:46;102754.41;;;3.36;100.00
28167;BME280;15455;53.376;-6.262;2023-02-13T08:50:31;102761.44;;;3.38;100.00
28167;BME280;15455;53.376;-6.262;2023-02-13T08:53:16;102770.81;;;3.51;100.00
28167;BME280;15455;53.376;-6.262;2023-02-13T08:56:02;102768.84;;;3.62;100.00
28167;BME280;15455;53.376;-6.262;2023-02-13T08:58:48;102770.47;;;3.75;100.00
28167;BME280;15455;53.376;-6.262;2023-02-13T09:01:34;102770.09;;;3.83;100.00
28167;BME280;15455;53.376;-6.262;2023-02-13T09:04:20;102776.25;;;4.00;100.00
28167;BME280;15455;53.376;-6.262;2023-02-13T09:07:05;102777.59;;;4.09;100.00
28167;BME280;15455;53.376;-6.262;2023-02-13T09:09:51;102774.53;;;4.16;100.00
28167;BME280;15455;53.376;-6.262;2023-02-13T09:12:36;102778.88;;;4.17;100.00
28167;BME280;15455;53.376;-6.262;2023-02-13T09:15:22;102781.00;;;4.24;100.00
28167;BME280;15455;53.376;-6.262;2023-02-13T09:18:08;102777.97;;;4.31;100.00
28167;BME280;15455;53.376;-6.262;2023-02-13T09:21:01;102784.16;;;4.50;100.00
28167;BME280;15455;53.376;-6.262;2023-02-13T09:23:48;102778.22;;;4.67;100.00
28167;BME280;15455;53.376;-6.262;2023-02-13T09:26:36;102765.63;;;4.74;100.00
28167;BME280;15455;53.376;-6.262;2023-02-13T09:29:21;102757.22;;;4.78;100.00
28167;BME280;15455;53.376;-6.262;2023-02-13T09:32:07;102758.44;;;4.84;100.00
28167;BME280;15455;53.376;-6.262;2023-02-13T09:34:52;102746.81;;;4.93;100.00
28167;BME280;15455;53.376;-6.262;2023-02-13T09:37:38;102738.97;;;5.08;100.00
28167;BME280;15455;53.376;-6.262;2023-02-13T09:40:33;102738.47;;;5.15;100.00
28167;BME280;15455;53.376;-6.262;2023-02-13T09:43:36;102739.78;;;5.23;100.00
28167;BME280;15455;53.376;-6.262;2023-02-13T09:46:37;102732.16;;;5.26;100.00
28167;BME280;15455;53.376;-6.262;2023-02-13T09:49:23;102730.69;;;5.31;100.00
28167;BME280;15455;53.376;-6.262;2023-02-13T09:52:12;102731.91;;;5.38;100.00
28167;BME280;15455;53.376;-6.262;2023-02-13T09:54:57;102724.34;;;5.43;100.00
28167;BME280;15455;53.376;-6.262;2023-02-13T09:57:52;102728.53;;;5.57;100.00
28167;BME280;15455;53.376;-6.262;2023-02-13T10:00:41;102728.94;;;5.65;100.00
28167;BME280;15455;53.376;-6.262;2023-02-13T10:03:33;102730.31;;;5.76;100.00
28167;BME280;15455;53.376;-6.262;2023-02-13T10:06:36;102728.13;;;5.84;100.00
28167;BME280;15455;53.376;-6.262;2023-02-13T10:09:47;102731.00;;;5.90;100.00
28167;BME280;15455;53.376;-6.262;2023-02-13T10:12:46;102733.69;;;5.91;100.00
28167;BME280;15455;53.376;-6.262;2023-02-13T10:15:47;102725.09;;;5.93;100.00
28167;BME280;15455;53.376;-6.262;2023-02-13T10:21:33;102720.00;;;5.94;100.00
28167;BME280;15455;53.376;-6.262;2023-02-13T10:24:38;102717.47;;;5.96;100.00
28167;BME280;15455;53.376;-6.262;2023-02-13T10:27:28;102709.81;;;5.97;100.00
28167;BME280;15455;53.376;-6.262;2023-02-13T10:30:23;102713.16;;;5.96;100.00
28167;BME280;15455;53.376;-6.262;2023-02-13T10:51:14;102715.22;;;6.39;100.00
28167;BME280;15455;53.376;-6.262;2023-02-13T10:57:30;102722.84;;;6.54;100.00
28167;BME280;15455;53.376;-6.262;2023-02-13T11:00:45;102703.25;;;6.61;100.00
28167;BME280;15455;53.376;-6.262;2023-02-13T11:03:32;102701.84;;;6.68;100.00
28167;BME280;15455;53.376;-6.262;2023-02-13T11:06:18;102703.75;;;6.72;100.00
28167;BME280;15455;53.376;-6.262;2023-02-13T11:09:05;102695.19;;;6.74;100.00
28167;BME280;15455;53.376;-6.262;2023-02-13T11:11:54;102692.81;;;6.79;100.00
28167;BME280;15455;53.376;-6.262;2023-02-13T11:14:56;102693.97;;;6.86;100.00
28167;BME280;15455;53.376;-6.262;2023-02-13T11:17:42;102703.25;;;7.00;100.00
28167;BME280;15455;53.376;-6.262;2023-02-13T11:20:39;102700.91;;;7.26;100.00
28167;BME280;15455;53.376;-6.262;2023-02-13T11:26:23;102695.78;;;7.70;100.00
28167;BME280;15455;53.376;-6.262;2023-02-13T11:29:19;102688.66;;;7.87;100.00
28167;BME280;15455;53.376;-6.262;2023-02-13T11:35:24;102691.22;;;8.30;100.00
28167;BME280;15455;53.376;-6.262;2023-02-13T11:41:09;102680.75;;;8.74;100.00
28167;BME280;15455;53.376;-6.262;2023-02-13T11:43:58;102670.97;;;8.91;100.00
28167;BME280;15455;53.376;-6.262;2023-02-13T11:46:50;102663.44;;;9.00;100.00
28167;BME280;15455;53.376;-6.262;2023-02-13T11:49:37;102665.50;;;9.09;100.00
28167;BME280;15455;53.376;-6.262;2023-02-13T11:52:27;102656.91;;;9.12;100.00
28167;BME280;15455;53.376;-6.262;2023-02-13T11:55:27;102654.16;;;9.07;100.00
28167;BME280;15455;53.376;-6.262;2023-02-13T12:04:26;102631.81;;;8.90;100.00
28167;BME280;15455;53.376;-6.262;2023-02-13T12:13:32;102623.28;;;8.94;100.00
28167;BME280;15455;53.376;-6.262;2023-02-13T12:19:18;102618.06;;;8.94;100.00
28167;BME280;15455;53.376;-6.262;2023-02-13T12:49:21;102570.03;;;9.66;100.00
28167;BME280;15455;53.376;-6.262;2023-02-13T12:52:43;102565.81;;;9.69;100.00
28167;BME280;15455;53.376;-6.262;2023-02-13T13:02:04;102569.28;;;9.70;100.00
28167;BME280;15455;53.376;-6.262;2023-02-13T13:14:50;102541.25;;;10.22;100.00
28167;BME280;15455;53.376;-6.262;2023-02-13T13:27:01;102531.69;;;10.22;100.00
28167;BME280;15455;53.376;-6.262;2023-02-13T13:29:53;102535.00;;;10.17;100.00
28167;BME280;15455;53.376;-6.262;2023-02-13T13:32:41;102525.59;;;10.22;100.00
28167;BME280;15455;53.376;-6.262;2023-02-13T13:35:29;102523.22;;;10.31;100.00
28167;BME280;15455;53.376;-6.262;2023-02-13T13:38:46;102518.44;;;10.47;100.00
28167;BME280;15455;53.376;-6.262;2023-02-13T13:41:41;102524.88;;;10.59;100.00
28167;BME280;15455;53.376;-6.262;2023-02-13T13:50:30;102502.81;;;10.82;100.00
28167;BME280;15455;53.376;-6.262;2023-02-13T13:53:19;102501.72;;;10.72;100.00
28167;BME280;15455;53.376;-6.262;2023-02-13T13:56:07;102503.34;;;10.68;100.00
28167;BME280;15455;53.376;-6.262;2023-02-13T13:58:53;102495.56;;;10.70;100.00
28167;BME280;15455;53.376;-6.262;2023-02-13T14:01:40;102506.69;;;10.63;100.00
28167;BME280;15455;53.376;-6.262;2023-02-13T14:07:23;102504.25;;;10.37;100.00
28167;BME280;15455;53.376;-6.262;2023-02-13T14:13:07;102494.06;;;10.45;100.00
28167;BME280;15455;53.376;-6.262;2023-02-13T14:15:53;102486.34;;;10.49;100.00
28167;BME280;15455;53.376;-6.262;2023-02-13T14:18:44;102483.91;;;10.57;100.00
28167;BME280;15455;53.376;-6.262;2023-02-13T14:21:31;102482.34;;;10.64;100.00
28167;BME280;15455;53.376;-6.262;2023-02-13T14:24:18;102479.84;;;10.68;100.00
28167;BME280;15455;53.376;-6.262;2023-02-13T14:27:04;102473.06;;;10.75;100.00
28167;BME280;15455;53.376;-6.262;2023-02-13T14:29:50;102470.22;;;10.67;100.00
28167;BME280;15455;53.376;-6.262;2023-02-13T14:32:37;102475.75;;;10.43;100.00
28167;BME280;15455;53.376;-6.262;2023-02-13T14:35:28;102466.56;;;10.25;100.00
28167;BME280;15455;53.376;-6.262;2023-02-13T14:38:23;102470.75;;;10.20;100.00
28167;BME280;15455;53.376;-6.262;2023-02-13T14:44:46;102455.53;;;10.04;100.00
28167;BME280;15455;53.376;-6.262;2023-02-13T14:47:39;102466.38;;;9.87;100.00
28167;BME280;15455;53.376;-6.262;2023-02-13T14:50:29;102455.28;;;9.95;100.00
28167;BME280;15455;53.376;-6.262;2023-02-13T14:53:23;102462.06;;;10.20;100.00
28167;BME280;15455;53.376;-6.262;2023-02-13T14:56:14;102456.78;;;10.50;100.00
28167;BME280;15455;53.376;-6.262;2023-02-13T14:59:14;102467.66;;;10.69;100.00
28167;BME280;15455;53.376;-6.262;2023-02-13T15:02:14;102463.44;;;10.74;100.00
28167;BME280;15455;53.376;-6.262;2023-02-13T15:05:13;102449.69;;;10.81;100.00
28167;BME280;15455;53.376;-6.262;2023-02-13T15:08:18;102439.31;;;10.84;100.00
28167;BME280;15455;53.376;-6.262;2023-02-13T15:11:05;102440.31;;;10.89;100.00
28167;BME280;15455;53.376;-6.262;2023-02-13T15:14:35;102441.44;;;10.99;100.00
28167;BME280;15455;53.376;-6.262;2023-02-13T15:17:34;102433.66;;;11.02;100.00
28167;BME280;15455;53.376;-6.262;2023-02-13T15:20:27;102432.03;;;11.09;100.00
28167;BME280;15455;53.376;-6.262;2023-02-13T15:23:25;102434.50;;;11.01;100.00
28167;BME280;15455;53.376;-6.262;2023-02-13T15:26:19;102425.59;;;10.93;100.00
28167;BME280;15455;53.376;-6.262;2023-02-13T15:29:25;102429.69;;;10.83;100.00
28167;BME280;15455;53.376;-6.262;2023-02-13T15:32:34;102425.81;;;10.66;100.00
28167;BME280;15455;53.376;-6.262;2023-02-13T15:35:29;102431.53;;;10.51;100.00
28167;BME280;15455;53.376;-6.262;2023-02-13T15:41:22;102440.47;;;10.25;100.00
28167;BME280;15455;53.376;-6.262;2023-02-13T15:44:16;102432.25;;;10.12;100.00
28167;BME280;15455;53.376;-6.262;2023-02-13T15:47:08;102432.53;;;9.90;100.00
28167;BME280;15455;53.376;-6.262;2023-02-13T15:49:54;102432.09;;;9.73;100.00
28167;BME280;15455;53.376;-6.262;2023-02-13T15:52:40;102423.84;;;9.58;100.00
28167;BME280;15455;53.376;-6.262;2023-02-13T15:55:28;102429.53;;;9.45;100.00
28167;BME280;15455;53.376;-6.262;2023-02-13T15:58:14;102430.16;;;9.36;100.00
28167;BME280;15455;53.376;-6.262;2023-02-13T16:01:04;102429.72;;;9.22;100.00
28167;BME280;15455;53.376;-6.262;2023-02-13T16:04:06;102430.28;;;9.12;100.00
28167;BME280;15455;53.376;-6.262;2023-02-13T16:06:54;102435.28;;;9.06;100.00
28167;BME280;15455;53.376;-6.262;2023-02-13T16:09:40;102426.50;;;9.02;100.00
28167;BME280;15455;53.376;-6.262;2023-02-13T16:12:27;102422.88;;;8.97;100.00
28167;BME280;15455;53.376;-6.262;2023-02-13T16:15:19;102421.81;;;8.90;100.00
28167;BME280;15455;53.376;-6.262;2023-02-13T16:18:17;102438.06;;;8.83;100.00
28167;BME280;15455;53.376;-6.262;2023-02-13T16:21:05;102433.56;;;8.77;100.00
28167;BME280;15455;53.376;-6.262;2023-02-13T16:24:14;102441.94;;;8.68;100.00
28167;BME280;15455;53.376;-6.262;2023-02-13T16:27:00;102445.31;;;8.66;100.00
28167;BME280;15455;53.376;-6.262;2023-02-13T16:29:56;102441.03;;;8.68;100.00
28167;BME280;15455;53.376;-6.262;2023-02-13T16:32:43;102443.78;;;8.71;100.00
28167;BME280;15455;53.376;-6.262;2023-02-13T16:35:30;102442.81;;;8.69;100.00
28167;BME280;15455;53.376;-6.262;2023-02-13T16:38:36;102435.59;;;8.60;100.00
28167;BME280;15455;53.376;-6.262;2023-02-13T16:44:21;102446.53;;;8.26;100.00
28167;BME280;15455;53.376;-6.262;2023-02-13T16:47:19;102455.53;;;8.10;100.00
28167;BME280;15455;53.376;-6.262;2023-02-13T16:50:14;102455.94;;;7.96;100.00
28167;BME280;15455;53.376;-6.262;2023-02-13T16:53:02;102446.84;;;7.85;100.00
28167;BME280;15455;53.376;-6.262;2023-02-13T16:55:56;102453.47;;;7.77;100.00
28167;BME280;15455;53.376;-6.262;2023-02-13T16:58:43;102453.00;;;7.63;100.00
28167;BME280;15455;53.376;-6.262;2023-02-13T17:01:29;102454.28;;;7.52;100.00
28167;BME280;15455;53.376;-6.262;2023-02-13T17:04:23;102451.22;;;7.39;100.00
28167;BME280;15455;53.376;-6.262;2023-02-13T17:07:15;102449.94;;;7.28;100.00
28167;BME280;15455;53.376;-6.262;2023-02-13T17:10:09;102448.59;;;7.15;100.00
28167;BME280;15455;53.376;-6.262;2023-02-13T17:13:14;102443.66;;;7.00;100.00